Time;durP1;ratioP1;P1;durP2;ratioP2;P2;SDS_P1;SDS_P2;PMS_P1;PMS_P2;Temp;Humidity;BMP_temperature;BMP_pressure;BME280_temperature;BME280_humidity;BME280_pressure;Samples;Min_cycle;Max_cycle;Signal;HPM_P1;HPM_P2
2022/11/18 00:00:28;;;;;;;0.60;0.45;;;;;;;16.62;92.14;99316.09;20767439;28;20554;-86
2022/11/18 00:10:30;;;;;;;0.52;0.43;;;;;;;16.53;92.15;99315.22;20765178;28;20052;-86
2022/11/18 00:20:32;;;;;;;0.30;0.30;;;;;;;16.38;92.26;99304.28;20784528;28;20050;-85
2022/11/18 00:30:34;;;;;;;0.43;0.43;;;;;;;16.61;92.36;99358.22;20766294;28;20117;-86
2022/11/18 00:40:35;;;;;;;0.30;0.30;;;;;;;16.52;92.29;99352.00;20773352;28;20705;-85
2022/11/18 00:50:37;;;;;;;0.40;0.40;;;;;;;16.20;92.60;99301.75;20761456;28;20065;-85
2022/11/18 01:00:43;;;;;;;0.32;0.32;;;;;;;16.62;92.46;99372.50;20777187;28;20053;-85
2022/11/18 01:10:46;;;;;;;0.55;0.50;;;;;;;16.62;92.33;99389.47;20772113;28;20129;-86
2022/11/18 01:20:48;;;;;;;0.40;0.40;;;;;;;16.61;92.56;99409.28;20754764;28;20056;-86
2022/11/18 01:30:50;;;;;;;0.40;0.40;;;;;;;16.61;92.27;99417.34;20750105;28;20154;-86
2022/11/18 01:40:51;;;;;;;0.50;0.50;;;;;;;16.61;92.38;99429.94;20793873;28;20068;-85
2022/11/18 01:50:58;;;;;;;0.88;0.60;;;;;;;16.62;92.40;99439.69;20761375;28;20107;-85
2022/11/18 02:01:01;;;;;;;0.30;0.30;;;;;;;16.61;92.15;99430.78;20771576;28;20049;-85
2022/11/18 02:11:03;;;;;;;0.70;0.70;;;;;;;16.61;92.07;99457.63;20742998;28;20049;-86
2022/11/18 02:21:25;;;;;;;0.50;0.50;;;;;;;16.61;92.10;99457.63;20744306;28;20268;-86
2022/11/18 02:31:36;;;;;;;0.70;0.60;;;;;;;16.61;92.11;99472.94;20735207;28;20054;-85
2022/11/18 02:41:38;;;;;;;0.60;0.60;;;;;;;16.60;92.05;99466.69;20796983;28;20064;-86
2022/11/18 02:51:40;;;;;;;0.50;0.50;;;;;;;16.48;91.95;99465.31;20774779;28;20054;-86
2022/11/18 03:01:42;;;;;;;0.50;0.50;;;;;;;16.51;91.95;99478.44;20781794;28;20152;-85
2022/11/18 03:11:52;;;;;;;0.80;0.80;;;;;;;16.61;91.89;99500.63;20781257;28;20077;-85
2022/11/18 03:22:07;;;;;;;0.95;0.60;;;;;;;16.39;91.64;99485.94;20780876;28;20142;-85
2022/11/18 03:32:15;;;;;;;0.60;0.50;;;;;;;16.48;91.50;99505.63;20797453;28;20052;-86
2022/11/18 03:42:27;;;;;;;0.70;0.70;;;;;;;16.59;91.63;99534.88;20751472;28;20046;-85
2022/11/18 03:52:32;;;;;;;0.95;0.95;;;;;;;16.53;91.40;99541.72;20757117;28;20053;-85
2022/11/18 04:02:34;;;;;;;0.70;0.70;;;;;;;16.59;91.30;99552.84;20772963;28;20080;-85
2022/11/18 04:12:48;;;;;;;0.70;0.60;;;;;;;16.59;91.38;99561.75;20769356;28;20100;-86
2022/11/18 04:22:50;;;;;;;0.50;0.50;;;;;;;16.19;91.30;99514.88;20753051;28;20056;-86
2022/11/18 04:32:51;;;;;;;0.90;0.90;;;;;;;16.59;91.47;99587.78;20777722;28;20704;-85
2022/11/18 04:42:53;;;;;;;0.80;0.80;;;;;;;16.57;91.28;99604.06;20780911;28;20065;-85
2022/11/18 04:52:54;;;;;;;0.70;0.70;;;;;;;16.58;91.19;99605.75;20780993;28;20944;-85
2022/11/18 05:02:55;;;;;;;0.60;0.60;;;;;;;16.57;91.12;99617.50;20775416;28;20060;-85
2022/11/18 05:12:57;;;;;;;1.00;0.90;;;;;;;16.46;91.07;99598.97;20772474;28;20076;-85
2022/11/18 05:22:58;;;;;;;0.80;0.80;;;;;;;16.57;90.80;99630.91;20766016;28;20124;-86
2022/11/18 05:32:59;;;;;;;0.95;0.82;;;;;;;16.57;90.81;99649.72;20758409;28;20054;-85
2022/11/18 05:43:10;;;;;;;0.80;0.80;;;;;;;16.57;90.69;99655.09;20751580;28;20060;-85
2022/11/18 05:53:11;;;;;;;0.93;0.82;;;;;;;16.57;90.67;99673.06;20755743;28;20132;-86
2022/11/18 06:03:18;;;;;;;1.40;1.30;;;;;;;16.51;89.27;99672.69;20749254;28;20041;-87
2022/11/18 06:13:25;;;;;;;1.20;1.10;;;;;;;16.65;89.81;99700.00;20753901;28;20111;-87
2022/11/18 06:23:28;;;;;;;1.40;1.30;;;;;;;16.75;89.80;99711.47;20763712;28;20573;-90
2022/11/18 06:33:29;;;;;;;1.15;1.05;;;;;;;16.74;89.41;99711.63;20769279;28;20457;-93
2022/11/18 06:43:43;;;;;;;1.20;1.10;;;;;;;16.87;89.12;99738.94;20793444;28;20176;-93
2022/11/18 06:53:44;;;;;;;1.75;1.20;;;;;;;16.92;88.81;99755.44;20774328;28;20080;-91
2022/11/18 07:03:46;;;;;;;3.28;1.48;;;;;;;16.47;87.88;99682.06;20767630;28;20515;-90
2022/11/18 07:13:48;;;;;;;3.92;2.00;;;;;;;16.28;90.19;99671.53;20768052;28;20038;-89
2022/11/18 07:23:49;;;;;;;4.72;2.03;;;;;;;17.02;88.16;99803.78;20775749;28;20053;-90
2022/11/18 07:33:54;;;;;;;3.50;2.08;;;;;;;17.03;87.88;99821.59;20743738;28;20085;-89
2022/11/18 07:43:57;;;;;;;4.27;2.70;;;;;;;16.99;87.78;99824.75;20754616;28;20128;-89
2022/11/18 07:54:09;;;;;;;2.63;1.80;;;;;;;16.81;87.84;99825.59;20753850;28;20155;-89
2022/11/18 08:04:11;;;;;;;2.38;1.90;;;;;;;16.85;88.00;99851.16;20764595;28;20088;-88
2022/11/18 08:14:12;;;;;;;1.75;1.63;;;;;;;16.80;88.17;99869.59;20760173;28;20049;-89
2022/11/18 08:24:14;;;;;;;2.40;1.73;;;;;;;16.78;88.41;99882.31;20768097;28;20057;-89
2022/11/18 08:34:16;;;;;;;2.53;1.90;;;;;;;16.44;88.31;99842.72;20765244;28;20045;-88
2022/11/18 08:44:17;;;;;;;2.90;1.80;;;;;;;16.73;88.40;99895.38;20750404;28;20053;-90
2022/11/18 08:54:19;;;;;;;1.70;1.60;;;;;;;16.72;88.40;99899.94;20766585;28;20046;-89
2022/11/18 09:04:20;;;;;;;2.65;1.70;;;;;;;16.11;88.33;99815.53;20755403;28;20445;-90
2022/11/18 09:14:21;;;;;;;2.83;1.70;;;;;;;16.52;88.96;99896.53;20741086;28;20049;-88
2022/11/18 09:24:43;;;;;;;2.17;1.55;;;;;;;16.70;89.24;99936.88;20743589;28;20054;-86
2022/11/18 09:34:45;;;;;;;2.60;1.80;;;;;;;16.69;89.14;99948.63;20744119;28;20522;-87
2022/11/18 09:45:15;;;;;;;3.50;2.05;;;;;;;16.67;89.33;99959.50;20725879;28;20085;-86
2022/11/18 09:55:24;;;;;;;1.70;1.60;;;;;;;16.68;89.49;99984.53;20747687;28;20053;-84
2022/11/18 10:05:29;;;;;;;2.33;1.70;;;;;;;16.17;89.44;99908.91;20763379;28;20491;-86
2022/11/18 10:15:54;;;;;;;3.00;1.70;;;;;;;16.66;89.57;99994.59;20780263;28;20065;-86
2022/11/18 10:25:56;;;;;;;3.33;1.70;;;;;;;16.65;89.47;100012.56;20747543;28;20060;-85
2022/11/18 10:36:10;;;;;;;2.20;1.92;;;;;;;16.63;89.56;100019.09;20768978;28;20054;-87
2022/11/18 10:46:29;;;;;;;2.25;2.00;;;;;;;16.63;89.41;100030.66;20754434;28;20060;-87
2022/11/18 10:56:43;;;;;;;1.75;1.65;;;;;;;16.31;89.45;99996.19;20789451;28;20107;-87
2022/11/18 11:06:45;;;;;;;2.90;2.00;;;;;;;16.62;89.51;100057.72;20791893;28;20053;-87
2022/11/18 11:16:52;;;;;;;2.17;1.80;;;;;;;16.61;89.51;100061.38;20789667;28;20049;-87
2022/11/18 11:27:37;;;;;;;1.60;1.50;;;;;;;16.61;89.71;100081.03;20779510;28;20572;-86
2022/11/18 11:38:00;;;;;;;2.38;1.83;;;;;;;16.61;89.50;100091.78;20751451;28;20050;-86
2022/11/18 11:48:20;;;;;;;2.13;1.45;;;;;;;15.93;89.53;100001.56;20773134;28;20132;-86
2022/11/18 11:58:32;;;;;;;3.17;1.55;;;;;;;16.54;89.73;100090.69;20769998;28;20046;-87
2022/11/18 12:08:34;;;;;;;1.70;1.50;;;;;;;16.59;89.47;100109.06;20768925;28;20056;-86
2022/11/18 12:18:49;;;;;;;1.65;1.55;;;;;;;16.28;89.80;100069.00;20790686;28;20063;-86
2022/11/18 12:28:50;;;;;;;2.38;1.98;;;;;;;16.49;89.46;100109.09;20779784;28;20565;-87
2022/11/18 12:38:53;;;;;;;2.47;1.75;;;;;;;16.60;89.54;100127.72;20777382;28;20061;-87
2022/11/18 12:48:54;;;;;;;2.38;1.38;;;;;;;16.60;89.50;100149.22;20785070;28;20080;-86
2022/11/18 12:58:58;;;;;;;1.75;1.63;;;;;;;16.61;89.34;100144.69;20791771;28;20406;-86
2022/11/18 13:09:03;;;;;;;2.47;1.58;;;;;;;16.58;89.49;100151.19;20767777;28;20060;-87
2022/11/18 13:19:05;;;;;;;1.57;1.43;;;;;;;16.43;89.43;100136.53;20789015;28;20056;-87
2022/11/18 13:29:15;;;;;;;1.70;1.50;;;;;;;16.62;89.36;100173.25;20784936;28;20393;-87
2022/11/18 13:39:26;;;;;;;2.20;1.30;;;;;;;16.28;89.40;100141.53;20783204;28;20046;-86
2022/11/18 13:50:02;;;;;;;1.40;1.30;;;;;;;16.56;89.20;100196.19;20781346;28;20045;-87
2022/11/18 14:00:19;;;;;;;1.88;1.65;;;;;;;16.60;89.24;100208.31;20769677;28;20115;-86
2022/11/18 14:10:32;;;;;;;1.52;1.42;;;;;;;16.60;89.22;100219.06;20783704;28;20518;-86
2022/11/18 14:20:49;;;;;;;1.50;1.40;;;;;;;16.61;89.24;100242.28;20750240;28;20259;-87
2022/11/18 14:31:20;;;;;;;1.85;1.50;;;;;;;16.60;89.20;100262.06;20753722;28;20499;-87
2022/11/18 14:51:45;;;;;;;1.65;1.55;;;;;;;16.60;89.13;100288.13;20797270;28;20103;-87
2022/11/18 15:01:47;;;;;;;1.38;1.27;;;;;;;16.52;89.04;100281.59;20796452;28;20077;-86
2022/11/18 15:11:48;;;;;;;1.80;1.50;;;;;;;16.60;89.00;100309.63;20799937;28;20053;-87
2022/11/18 15:21:50;;;;;;;1.73;1.63;;;;;;;16.61;89.10;100312.16;20794735;28;20140;-87
2022/11/18 15:31:51;;;;;;;1.42;1.30;;;;;;;16.61;88.91;100314.00;20753435;28;20079;-87
2022/11/18 15:41:53;;;;;;;1.73;1.45;;;;;;;16.60;88.91;100321.19;20790413;28;20053;-87
2022/11/18 15:51:54;;;;;;;1.77;1.55;;;;;;;16.59;88.95;100330.25;20802114;28;20106;-86
2022/11/18 16:01:55;;;;;;;1.48;1.20;;;;;;;16.59;89.02;100354.44;20783812;28;20075;-86
2022/11/18 16:22:17;;;;;;;1.92;1.40;;;;;;;16.59;88.76;100372.41;20789407;28;20072;-86
2022/11/18 16:32:18;;;;;;;1.50;1.40;;;;;;;16.60;88.76;100376.81;20777699;28;20045;-86
2022/11/18 16:42:19;;;;;;;1.92;1.67;;;;;;;16.59;88.72;100391.22;20771065;28;20164;-86
2022/11/18 16:52:21;;;;;;;1.40;1.23;;;;;;;16.20;88.73;100332.91;20765848;28;20049;-86
2022/11/18 17:02:22;;;;;;;1.40;1.30;;;;;;;16.47;88.54;100401.25;20796443;28;20049;-86
2022/11/18 17:12:24;;;;;;;1.52;1.40;;;;;;;16.59;88.65;100434.22;20796340;28;20042;-87
2022/11/18 17:22:25;;;;;;;1.50;1.40;;;;;;;16.58;88.59;100451.34;20794799;28;20053;-86
2022/11/18 17:32:27;;;;;;;1.33;1.23;;;;;;;16.58;88.51;100468.28;20760320;28;20567;-86
2022/11/18 17:42:28;;;;;;;1.60;1.50;;;;;;;16.48;88.54;100468.25;20793125;28;20064;-87
2022/11/18 17:52:30;;;;;;;1.67;1.58;;;;;;;16.35;88.55;100460.47;20758584;28;20053;-86
2022/11/18 18:02:31;;;;;;;2.15;1.63;;;;;;;16.47;88.63;100492.59;20768083;28;20057;-88
2022/11/18 18:22:54;;;;;;;1.60;1.50;;;;;;;16.28;88.43;100490.69;20738975;28;20506;-86
2022/11/18 18:32:55;;;;;;;1.70;1.40;;;;;;;16.58;88.37;100553.47;20762346;28;20060;-87
2022/11/18 18:42:57;;;;;;;1.50;1.40;;;;;;;16.58;88.32;100567.72;20760911;28;20060;-86
2022/11/18 18:52:58;;;;;;;1.35;1.25;;;;;;;16.57;88.24;100573.22;20774498;28;20049;-85
2022/11/18 19:02:59;;;;;;;1.35;1.25;;;;;;;16.57;87.99;100579.47;20707272;28;20050;-86
2022/11/18 19:13:01;;;;;;;1.30;1.20;;;;;;;16.58;88.22;100591.09;20773272;28;20498;-85
2022/11/18 19:23:05;;;;;;;1.20;1.10;;;;;;;16.56;88.14;100596.56;20755472;28;20054;-85
2022/11/18 19:33:11;;;;;;;1.40;1.30;;;;;;;16.56;88.02;100610.00;20745543;28;20520;-86
2022/11/18 19:43:13;;;;;;;1.60;1.50;;;;;;;16.56;87.94;100626.13;20777252;28;20129;-86
2022/11/18 19:53:34;;;;;;;1.50;1.40;;;;;;;16.56;87.75;100646.78;20744760;28;20053;-86
2022/11/18 20:03:35;;;;;;;1.58;1.48;;;;;;;16.23;87.61;100603.91;20739430;28;20045;-86
2022/11/18 20:13:37;;;;;;;1.50;1.40;;;;;;;16.56;87.77;100661.06;20769416;28;20216;-86
2022/11/18 20:23:39;;;;;;;1.63;1.50;;;;;;;16.47;87.44;100640.38;20785847;28;20520;-86
2022/11/18 20:33:42;;;;;;;1.88;1.50;;;;;;;16.56;87.65;100668.28;20744912;28;20148;-85
2022/11/18 20:43:44;;;;;;;1.60;1.50;;;;;;;16.55;87.56;100667.44;20753715;28;20058;-87
2022/11/18 20:53:46;;;;;;;1.55;1.42;;;;;;;16.55;87.42;100683.56;20773404;28;20053;-86
2022/11/18 21:03:53;;;;;;;1.63;1.52;;;;;;;16.55;87.33;100694.31;20766675;28;20049;-86
2022/11/18 21:24:29;;;;;;;1.50;1.40;;;;;;;16.48;87.17;100693.13;20759744;28;20057;-86
2022/11/18 21:34:31;;;;;;;1.40;1.30;;;;;;;16.55;87.10;100704.19;20755732;28;20111;-86
2022/11/18 21:44:32;;;;;;;1.33;1.23;;;;;;;16.55;87.14;100717.63;20763191;28;20405;-85
2022/11/18 21:54:35;;;;;;;1.38;1.27;;;;;;;16.53;86.90;100723.16;20744302;28;20103;-86
2022/11/18 22:04:52;;;;;;;1.58;1.40;;;;;;;16.54;87.16;100722.16;20757238;28;20158;-86
2022/11/18 22:14:53;;;;;;;1.50;1.40;;;;;;;16.55;86.98;100741.81;20756010;28;20061;-86
2022/11/18 22:24:54;;;;;;;1.55;1.45;;;;;;;16.46;86.85;100748.84;20786356;28;20490;-85
2022/11/18 22:34:56;;;;;;;1.33;1.23;;;;;;;16.54;86.78;100759.78;20785805;28;20085;-85
2022/11/18 22:44:57;;;;;;;1.40;1.30;;;;;;;16.53;86.70;100755.41;20786864;28;20128;-86
2022/11/18 22:54:59;;;;;;;1.73;1.60;;;;;;;16.53;86.66;100764.31;20797284;28;20057;-86
2022/11/18 23:05:00;;;;;;;1.40;1.30;;;;;;;16.52;86.58;100780.56;20779740;28;20046;-85
2022/11/18 23:15:02;;;;;;;1.40;1.30;;;;;;;16.53;86.67;100793.03;20795202;28;20053;-89
2022/11/18 23:25:04;;;;;;;1.50;1.38;;;;;;;16.53;86.54;100809.16;20790718;28;20045;-85
2022/11/18 23:35:05;;;;;;;1.50;1.40;;;;;;;16.53;86.41;100817.22;20759476;28;20109;-83
2022/11/18 23:45:07;;;;;;;1.40;1.30;;;;;;;16.52;86.39;100829.78;20748116;28;20053;-86
2022/11/18 23:55:09;;;;;;;1.38;1.25;;;;;;;16.52;86.23;100828.94;20801615;28;20045;-86
